KCVS/CVS METAR and TAF weather

Enter ICAO airport designator
Station Type Date Time Source
KCVS METAR 2020/07/06 08:58 UTC NOAA

KCVS 060858Z AUTO 20006KT 10SM CLR 19/16 A3010 RMK AO2 SLP133 T01860156 53003 $


Station Type Date Time Source
KCVS Decoded METAR 2020/07/06 08:58 UTC NOAA

Cannon Air Force Base / Clovis, NM, United States (KCVS) 34-23N 103-19W
Jul 06, 2020 - 04:58 AM EDT / 2020.07.06 0858 UTC
Wind: from the SSW (200 degrees) at 7 MPH (6 KT):0
Visibility: 10 mile(s):0
Sky conditions: clear
Temperature: 65.5 F (18.6 C)
Dew Point: 60.1 F (15.6 C)
Relative Humidity: 82%
Pressure (altimeter): 30.1 in. Hg (1019 hPa)
Pressure tendency: 0.01 inches (0.3 hPa) higher than three hours ago
ob: KCVS 060858Z AUTO 20006KT 10SM CLR 19/16 A3010 RMK AO2 SLP133 T01860156 53003
cycle: 9

Station Type Date Time Source
KCVS TAF 2020/07/03 02:34 UTC NOAA

TAF KCVS 030200Z 0302/0408 16008KT 9999 SCT070 SCT100 QNH3003INS
BECMG 0307/0308 VRB06KT 9999 SCT070 QNH3008INS
BECMG 0317/0318 15010KT 9999 VCTS BKN050 OVC080CB QNH3004INS
BECMG 0403/0404 06006KT 9999 NSW BKN060 OVC070 QNH3008INS TX33/0318Z TN19/0312Z LAST NO
AMDS AFT 0305 NEXT 0710

Example: see airport list